Time;durP1;ratioP1;P1;durP2;ratioP2;P2;SDS_P1;SDS_P2;PMS_P1;PMS_P2;Temp;Humidity;BMP_temperature;BMP_pressure;BME280_temperature;BME280_humidity;BME280_pressure;Samples;Min_cycle;Max_cycle;Signal;HPM_P1;HPM_P2
2021/09/11 00:02:06;;;;;;;1.63;1.50;;;23.70;58.70;;;;;;6265410;28;20021;-72
2021/09/11 00:05:08;;;;;;;1.48;1.38;;;23.80;58.80;;;;;;6268084;28;20230;-72
2021/09/11 00:08:09;;;;;;;1.50;1.33;;;23.80;58.80;;;;;;6241678;28;20580;-72
2021/09/11 00:11:11;;;;;;;1.85;1.40;;;23.70;58.70;;;;;;6249113;28;20032;-72
2021/09/11 00:14:12;;;;;;;1.75;1.50;;;23.70;58.70;;;;;;6245320;28;20021;-72
2021/09/11 00:17:15;;;;;;;1.67;1.40;;;23.70;58.70;;;;;;6249699;28;20021;-72
2021/09/11 00:20:16;;;;;;;1.40;1.30;;;23.70;58.70;;;;;;6267693;28;20025;-72
2021/09/11 00:23:17;;;;;;;1.60;1.48;;;23.70;58.70;;;;;;6232444;28;20021;-72
2021/09/11 00:26:19;;;;;;;1.77;1.40;;;23.70;58.70;;;;;;6249606;28;20064;-72
2021/09/11 00:29:20;;;;;;;1.30;1.20;;;23.80;58.80;;;;;;6267296;28;20021;-73
2021/09/11 00:32:22;;;;;;;1.60;1.48;;;23.70;58.70;;;;;;6248935;28;20025;-72
2021/09/11 00:35:23;;;;;;;1.70;1.50;;;23.70;58.70;;;;;;6267717;28;20057;-72
2021/09/11 00:38:27;;;;;;;1.45;1.23;;;23.70;58.70;;;;;;6241997;28;20025;-72
2021/09/11 00:41:31;;;;;;;1.48;1.30;;;23.70;58.70;;;;;;6243002;28;20076;-72
2021/09/11 00:44:33;;;;;;;1.60;1.30;;;23.70;58.70;;;;;;6225251;28;20080;-72
2021/09/11 00:47:35;;;;;;;1.58;1.38;;;23.70;58.70;;;;;;6231530;28;20234;-72
2021/09/11 00:50:36;;;;;;;1.35;1.23;;;23.70;58.70;;;;;;6267462;28;20021;-72
2021/09/11 00:53:39;;;;;;;1.73;1.30;;;23.70;58.70;;;;;;6240763;28;20022;-72
2021/09/11 00:56:41;;;;;;;2.42;1.30;;;23.70;59.50;;;;;;6241990;28;20021;-72
2021/09/11 00:59:44;;;;;;;1.88;1.45;;;23.70;58.70;;;;;;6265140;28;20036;-72
2021/09/11 01:02:46;;;;;;;1.75;1.42;;;23.80;58.90;;;;;;6248699;28;20025;-72
2021/09/11 01:05:47;;;;;;;1.33;1.23;;;23.70;58.70;;;;;;6249028;28;20025;-72
2021/09/11 01:08:50;;;;;;;1.75;1.40;;;23.70;58.80;;;;;;6266951;28;20025;-72
2021/09/11 01:11:51;;;;;;;1.30;1.20;;;23.70;58.80;;;;;;6267155;28;20017;-72
2021/09/11 01:14:53;;;;;;;1.80;1.40;;;23.70;58.80;;;;;;6240882;28;20112;-72
2021/09/11 01:17:56;;;;;;;1.70;1.30;;;23.70;59.00;;;;;;6267218;28;20394;-73
2021/09/11 01:21:02;;;;;;;1.60;1.40;;;23.70;58.80;;;;;;6249027;28;20051;-72
2021/09/11 01:24:25;;;;;;;1.40;1.10;;;23.70;58.80;;;;;;6266800;28;20017;-72
2021/09/11 01:27:27;;;;;;;1.75;1.30;;;23.70;58.80;;;;;;6249087;28;20032;-72
2021/09/11 01:31:13;;;;;;;1.52;1.42;;;23.70;58.80;;;;;;6266886;28;20033;-72
2021/09/11 01:34:21;;;;;;;1.65;1.25;;;23.70;58.80;;;;;;6189055;28;20042;-72
2021/09/11 01:37:26;;;;;;;1.23;1.10;;;23.70;58.80;;;;;;6193988;28;20459;-73
2021/09/11 01:40:28;;;;;;;1.20;1.10;;;23.70;58.80;;;;;;6266918;28;20029;-73
2021/09/11 01:43:41;;;;;;;1.70;1.30;;;23.70;58.80;;;;;;6266622;28;20052;-73
2021/09/11 01:46:43;;;;;;;1.80;1.52;;;23.70;58.80;;;;;;6271175;28;20474;-72
2021/09/11 01:49:45;;;;;;;1.20;1.02;;;23.70;58.80;;;;;;6245035;28;20036;-73
2021/09/11 01:52:48;;;;;;;1.30;1.10;;;23.70;58.80;;;;;;6228866;28;20030;-73
2021/09/11 01:55:50;;;;;;;2.38;1.50;;;23.70;58.80;;;;;;6266103;28;20017;-73
2021/09/11 01:58:51;;;;;;;1.67;1.27;;;23.70;58.80;;;;;;6248615;28;20053;-73
2021/09/11 02:01:53;;;;;;;1.30;1.20;;;23.70;58.80;;;;;;6228396;28;20486;-73
2021/09/11 02:04:54;;;;;;;1.63;1.42;;;23.70;58.80;;;;;;6238213;28;20094;-73
2021/09/11 02:07:55;;;;;;;1.40;1.20;;;23.70;58.80;;;;;;6271279;28;20100;-73
2021/09/11 02:11:03;;;;;;;2.45;1.40;;;23.80;58.90;;;;;;6232984;28;20021;-73
2021/09/11 02:14:06;;;;;;;1.40;1.17;;;23.70;58.80;;;;;;6228253;28;20057;-73
2021/09/11 02:17:08;;;;;;;1.75;1.35;;;23.70;58.80;;;;;;6228147;28;20030;-73
2021/09/11 02:20:11;;;;;;;1.30;1.20;;;23.70;58.80;;;;;;6240075;28;20425;-72
2021/09/11 02:23:13;;;;;;;1.77;1.23;;;23.70;58.80;;;;;;6253132;28;20033;-72
2021/09/11 02:26:16;;;;;;;1.35;1.25;;;23.70;58.80;;;;;;6232627;28;20041;-73
2021/09/11 02:29:17;;;;;;;1.60;1.40;;;23.80;58.90;;;;;;6245581;28;20029;-72
2021/09/11 02:32:19;;;;;;;1.77;1.20;;;23.70;58.80;;;;;;6228014;28;20545;-73
2021/09/11 02:35:20;;;;;;;1.20;1.10;;;23.70;58.80;;;;;;6227519;28;20033;-73
2021/09/11 02:38:22;;;;;;;2.22;1.48;;;23.70;58.80;;;;;;6227580;28;20044;-72
2021/09/11 02:41:26;;;;;;;1.30;1.10;;;23.70;58.80;;;;;;6245557;28;20029;-73
2021/09/11 02:44:33;;;;;;;1.58;1.20;;;23.70;58.80;;;;;;6227518;28;20051;-72
2021/09/11 02:47:34;;;;;;;1.75;1.30;;;23.70;58.90;;;;;;6245083;28;20576;-73
2021/09/11 02:50:35;;;;;;;1.70;1.13;;;23.70;58.80;;;;;;6227424;28;20498;-73
2021/09/11 02:53:37;;;;;;;1.52;1.23;;;23.70;58.80;;;;;;6227385;28;20036;-73
2021/09/11 02:56:38;;;;;;;1.63;1.30;;;23.70;58.90;;;;;;6219972;28;20504;-73
2021/09/11 02:59:39;;;;;;;1.40;1.20;;;23.70;58.90;;;;;;6246411;28;20029;-72
2021/09/11 03:02:40;;;;;;;1.15;1.05;;;23.70;58.80;;;;;;6251897;28;20498;-73
2021/09/11 03:05:42;;;;;;;1.40;1.20;;;23.70;58.80;;;;;;6269959;28;20056;-72
2021/09/11 03:08:43;;;;;;;1.35;1.00;;;23.70;58.90;;;;;;6270089;28;20083;-72
2021/09/11 03:11:46;;;;;;;1.33;1.20;;;23.70;58.80;;;;;;6236910;28;20120;-73
2021/09/11 03:14:48;;;;;;;1.00;0.90;;;23.70;58.90;;;;;;6253609;28;20086;-73
2021/09/11 03:17:50;;;;;;;1.35;1.20;;;23.70;58.90;;;;;;6244067;28;20029;-73
2021/09/11 03:21:00;;;;;;;1.30;1.20;;;23.70;58.90;;;;;;6227027;28;20024;-72
2021/09/11 03:24:08;;;;;;;1.85;1.33;;;23.70;58.90;;;;;;6226800;28;20090;-73
2021/09/11 03:27:10;;;;;;;1.13;1.02;;;23.70;58.90;;;;;;6242590;28;20028;-73
2021/09/11 03:30:13;;;;;;;1.58;1.30;;;23.70;58.90;;;;;;6269619;28;20017;-73
2021/09/11 03:33:16;;;;;;;0.98;0.90;;;23.70;58.90;;;;;;6269186;28;20025;-72
2021/09/11 03:36:18;;;;;;;1.70;1.38;;;23.80;59.00;;;;;;6250960;28;20502;-73
2021/09/11 03:39:19;;;;;;;1.30;1.15;;;23.70;59.60;;;;;;6269351;28;20548;-73
2021/09/11 03:42:21;;;;;;;1.40;1.30;;;23.70;58.90;;;;;;6250798;28;20017;-73
2021/09/11 03:45:25;;;;;;;1.20;1.05;;;23.80;59.00;;;;;;6268714;28;20017;-73
2021/09/11 03:48:27;;;;;;;1.42;1.13;;;23.70;58.90;;;;;;6242482;28;20040;-73
2021/09/11 03:51:32;;;;;;;1.15;1.05;;;23.70;58.90;;;;;;6250182;28;20403;-73
2021/09/11 03:54:34;;;;;;;1.38;1.27;;;23.70;58.90;;;;;;6250625;28;21500;-73
2021/09/11 03:57:52;;;;;;;1.13;0.90;;;23.70;58.90;;;;;;6250062;28;20045;-73
2021/09/11 04:01:01;;;;;;;0.90;0.80;;;23.80;59.00;;;;;;6285545;28;20543;-72
2021/09/11 04:04:17;;;;;;;1.40;1.30;;;23.70;58.90;;;;;;6275926;28;20027;-73
2021/09/11 04:07:19;;;;;;;1.02;0.93;;;23.70;58.90;;;;;;6274076;28;20540;-73
2021/09/11 04:10:21;;;;;;;1.55;1.30;;;23.70;58.90;;;;;;6292975;28;20472;-73
2021/09/11 04:13:26;;;;;;;1.50;1.30;;;23.70;58.90;;;;;;6275270;28;20033;-73
2021/09/11 04:20:49;;;;;;;1.13;1.02;;;23.70;58.90;;;;;;6226849;28;20068;-73
2021/09/11 04:23:51;;;;;;;1.20;1.10;;;23.70;58.90;;;;;;6268376;28;20024;-73
2021/09/11 04:39:21;;;;;;;;;;;;;;;;;;;;;
2021/09/11 04:43:32;;;;;;;;;;;;;;;;;;;;;
2021/09/11 06:20:17;;;;;;;;;;;;;;;;;;;;;
2021/09/11 06:31:26;;;;;;;1.42;1.17;;;23.80;59.10;;;;;;6192663;28;20420;-73
2021/09/11 06:35:29;;;;;;;;;;;;;;;;;;;;;
2021/09/11 08:39:43;;;;;;;0.80;0.80;;;23.80;59.10;;;;;;6240026;28;20511;-70
2021/09/11 08:49:57;;;;;;;1.00;0.90;;;23.80;59.10;;;;;;6249397;28;20367;-70
2021/09/11 08:57:26;;;;;;;0.93;0.75;;;23.80;59.30;;;;;;6265824;28;20696;-70
2021/09/11 09:00:54;;;;;;;0.73;0.70;;;23.80;59.10;;;;;;6249484;28;20056;-70
2021/09/11 09:03:56;;;;;;;1.10;1.00;;;23.80;59.10;;;;;;6267187;28;20025;-70
2021/09/11 09:06:59;;;;;;;1.58;1.08;;;23.80;59.20;;;;;;6249304;28;20378;-70
2021/09/11 09:10:06;;;;;;;1.23;0.90;;;23.80;59.20;;;;;;6268031;28;20052;-72
2021/09/11 09:13:07;;;;;;;2.22;1.00;;;23.80;59.20;;;;;;6250589;28;20100;-72
2021/09/11 09:16:14;;;;;;;0.90;0.80;;;23.80;59.20;;;;;;6249980;28;20025;-71
2021/09/11 09:19:25;;;;;;;1.08;0.98;;;23.80;59.20;;;;;;6250823;28;20389;-72
2021/09/11 09:22:25;;;;;;;1.80;1.08;;;23.80;59.20;;;;;;6267899;28;20021;-72
2021/09/11 09:25:35;;;;;;;1.33;1.10;;;23.80;59.20;;;;;;6267972;28;20048;-72
2021/09/11 09:28:37;;;;;;;2.25;0.95;;;23.80;59.20;;;;;;6249698;28;20429;-72
2021/09/11 09:31:38;;;;;;;1.25;1.10;;;23.80;59.20;;;;;;6250411;28;20029;-72
2021/09/11 09:34:41;;;;;;;1.67;0.80;;;23.80;59.20;;;;;;6249914;28;20033;-72
2021/09/11 09:38:05;;;;;;;1.25;1.10;;;23.80;59.20;;;;;;6267751;28;20596;-72
2021/09/11 09:41:10;;;;;;;4.15;1.10;;;23.80;59.20;;;;;;6267522;28;20045;-72
2021/09/11 09:44:12;;;;;;;2.05;1.05;;;23.80;59.20;;;;;;6267525;28;20100;-73
2021/09/11 09:47:18;;;;;;;1.35;1.00;;;23.80;59.20;;;;;;6249680;28;20048;-73
2021/09/11 09:50:19;;;;;;;4.75;1.23;;;23.80;59.20;;;;;;6249682;28;20020;-72
2021/09/11 09:53:20;;;;;;;1.30;1.10;;;23.80;59.20;;;;;;6249799;28;20021;-71
2021/09/11 09:56:21;;;;;;;1.20;1.10;;;23.80;59.20;;;;;;6248915;28;20076;-72
2021/09/11 09:59:22;;;;;;;1.20;1.00;;;23.80;59.20;;;;;;6265526;28;20035;-72
2021/09/11 10:02:22;;;;;;;1.02;0.95;;;23.80;59.20;;;;;;6265170;28;20021;-72
2021/09/11 10:05:26;;;;;;;1.73;1.08;;;23.80;59.20;;;;;;6264438;28;20017;-72
2021/09/11 10:08:28;;;;;;;1.08;0.98;;;23.80;59.20;;;;;;6252224;28;20691;-72
2021/09/11 10:11:37;;;;;;;1.42;1.10;;;23.80;59.30;;;;;;6269985;28;20075;-72
2021/09/11 10:14:38;;;;;;;1.20;1.10;;;23.80;59.20;;;;;;6269858;28;20273;-72
2021/09/11 10:17:39;;;;;;;1.35;1.20;;;23.80;59.20;;;;;;6228856;28;20030;-72
2021/09/11 10:21:17;;;;;;;1.17;1.08;;;23.80;59.20;;;;;;6252357;28;20056;-72
2021/09/11 10:24:25;;;;;;;2.08;1.20;;;23.80;59.20;;;;;;6251911;28;20360;-72
2021/09/11 10:27:36;;;;;;;1.52;1.00;;;23.80;59.20;;;;;;6251530;28;20505;-72
2021/09/11 10:31:07;;;;;;;1.10;1.00;;;23.80;59.20;;;;;;6269742;28;20051;-72
2021/09/11 10:34:08;;;;;;;0.93;0.85;;;23.80;59.20;;;;;;6251691;28;20540;-72
2021/09/11 10:37:09;;;;;;;1.27;1.00;;;23.80;59.30;;;;;;6251448;28;20302;-72
2021/09/11 10:40:18;;;;;;;1.35;0.75;;;23.80;59.30;;;;;;6269578;28;20538;-72
2021/09/11 10:43:28;;;;;;;1.33;1.10;;;23.80;59.30;;;;;;6252295;28;20017;-72
2021/09/11 10:46:50;;;;;;;1.30;1.17;;;23.80;59.20;;;;;;6250829;28;20025;-72
2021/09/11 10:50:11;;;;;;;1.10;1.00;;;23.80;59.20;;;;;;6250831;28;20060;-73
2021/09/11 10:53:22;;;;;;;1.30;1.10;;;23.80;59.30;;;;;;6269113;28;20300;-72
2021/09/11 10:56:36;;;;;;;1.27;0.93;;;23.80;59.20;;;;;;6251496;28;20029;-72
2021/09/11 10:59:38;;;;;;;1.00;0.90;;;23.80;59.20;;;;;;6250826;28;20048;-73
2021/09/11 11:02:39;;;;;;;1.30;0.95;;;23.80;59.30;;;;;;6243155;28;20061;-72
2021/09/11 11:06:01;;;;;;;1.90;0.90;;;23.80;59.30;;;;;;6227156;28;20017;-72
2021/09/11 11:09:02;;;;;;;1.10;1.00;;;23.80;59.20;;;;;;6245783;28;20029;-72
2021/09/11 11:12:03;;;;;;;1.30;1.08;;;23.80;59.30;;;;;;6244643;28;20047;-72
2021/09/11 11:15:11;;;;;;;1.17;1.02;;;23.80;59.30;;;;;;6245704;28;20075;-72
2021/09/11 11:18:13;;;;;;;1.33;1.23;;;23.80;59.30;;;;;;6227941;28;20041;-72
2021/09/11 11:21:18;;;;;;;0.80;0.80;;;23.80;59.20;;;;;;6246245;28;20053;-72
2021/09/11 11:24:19;;;;;;;0.93;0.88;;;23.80;59.20;;;;;;6227524;28;20013;-72
2021/09/11 11:27:23;;;;;;;1.08;0.90;;;23.80;59.30;;;;;;6245761;28;20490;-72
2021/09/11 11:30:24;;;;;;;1.00;0.90;;;23.80;59.30;;;;;;6227706;28;20057;-72
2021/09/11 11:33:25;;;;;;;1.00;0.90;;;23.80;59.30;;;;;;6245133;28;20114;-73
2021/09/11 11:36:27;;;;;;;1.13;1.02;;;23.80;59.30;;;;;;6229271;28;20025;-72
2021/09/11 11:39:39;;;;;;;1.05;0.85;;;23.80;59.30;;;;;;6245562;28;20050;-72
2021/09/11 11:42:42;;;;;;;1.17;1.08;;;23.80;59.20;;;;;;6225987;28;20246;-72
2021/09/11 11:45:47;;;;;;;1.02;0.93;;;23.80;59.20;;;;;;6227785;28;20028;-72
2021/09/11 11:48:48;;;;;;;1.75;1.05;;;23.80;59.30;;;;;;6226632;28;20569;-72
2021/09/11 11:51:53;;;;;;;0.80;0.80;;;23.80;59.30;;;;;;6226898;28;20373;-71
2021/09/11 11:54:54;;;;;;;1.20;1.00;;;23.80;59.30;;;;;;6226877;28;20399;-72
2021/09/11 11:58:07;;;;;;;1.40;1.05;;;23.80;59.30;;;;;;6243278;28;20036;-72
2021/09/11 12:01:08;;;;;;;1.20;1.10;;;23.80;59.30;;;;;;6244622;28;20021;-71
2021/09/11 12:04:15;;;;;;;0.85;0.75;;;23.80;59.20;;;;;;6230250;28;20403;-71
2021/09/11 12:07:31;;;;;;;1.25;1.00;;;23.80;59.20;;;;;;6269816;28;20017;-71
2021/09/11 12:10:33;;;;;;;1.13;1.02;;;23.80;59.30;;;;;;6268930;28;20511;-71
2021/09/11 12:13:33;;;;;;;1.30;1.00;;;23.80;59.30;;;;;;6250605;28;20021;-71
2021/09/11 12:16:34;;;;;;;0.70;0.70;;;23.80;59.30;;;;;;6251045;28;20048;-72
2021/09/11 12:19:35;;;;;;;1.05;0.90;;;23.80;59.30;;;;;;6251377;28;20024;-71
2021/09/11 12:22:35;;;;;;;1.35;1.00;;;23.80;59.30;;;;;;6268825;28;20104;-71
2021/09/11 12:26:07;;;;;;;1.15;1.05;;;23.80;59.30;;;;;;6268353;28;20074;-70
2021/09/11 12:29:11;;;;;;;1.10;0.98;;;23.80;59.30;;;;;;6269710;28;20021;-71
2021/09/11 12:32:18;;;;;;;0.68;0.68;;;23.80;59.30;;;;;;6250874;28;20029;-71
2021/09/11 12:35:28;;;;;;;0.82;0.82;;;23.80;59.30;;;;;;6250658;28;20032;-72
2021/09/11 12:38:41;;;;;;;1.08;0.98;;;23.80;59.30;;;;;;6268259;28;20048;-72
2021/09/11 12:41:43;;;;;;;0.88;0.85;;;23.80;59.30;;;;;;6250347;28;20079;-70
2021/09/11 12:44:44;;;;;;;0.95;0.88;;;23.80;59.30;;;;;;6250644;28;20154;-72
2021/09/11 12:47:45;;;;;;;1.08;0.90;;;23.80;59.30;;;;;;6268165;28;20033;-72
2021/09/11 12:50:45;;;;;;;1.65;0.95;;;23.80;59.30;;;;;;6250867;28;20120;-72
2021/09/11 12:53:45;;;;;;;0.85;0.70;;;23.80;59.30;;;;;;6268861;28;20466;-72
2021/09/11 12:56:46;;;;;;;1.20;1.10;;;23.80;59.30;;;;;;6251008;28;20039;-72
2021/09/11 12:59:47;;;;;;;0.90;0.90;;;23.80;59.30;;;;;;6250326;28;20083;-72
2021/09/11 13:02:49;;;;;;;0.85;0.82;;;23.80;59.30;;;;;;6268337;28;20049;-72
2021/09/11 13:05:49;;;;;;;1.10;0.80;;;23.80;59.30;;;;;;6267672;28;20090;-72
2021/09/11 13:08:50;;;;;;;1.05;0.90;;;23.80;59.30;;;;;;6268681;28;20100;-72
2021/09/11 13:11:51;;;;;;;1.10;1.00;;;23.80;59.30;;;;;;6250083;28;20131;-72
2021/09/11 13:14:51;;;;;;;0.95;0.85;;;23.80;59.30;;;;;;6266107;28;20548;-71
2021/09/11 13:17:52;;;;;;;0.75;0.75;;;23.80;59.30;;;;;;6265850;28;20414;-71
2021/09/11 13:20:53;;;;;;;0.60;0.60;;;23.80;59.30;;;;;;6248261;28;20032;-71
2021/09/11 13:23:55;;;;;;;0.90;0.80;;;23.80;59.30;;;;;;6247777;28;20021;-72
2021/09/11 13:26:57;;;;;;;1.23;0.80;;;23.80;59.30;;;;;;6265826;28;20029;-72
2021/09/11 13:29:58;;;;;;;0.70;0.70;;;23.80;59.30;;;;;;6247383;28;20478;-72
2021/09/11 13:32:58;;;;;;;0.70;0.70;;;23.80;59.30;;;;;;6265825;28;20064;-72
2021/09/11 13:36:00;;;;;;;0.80;0.80;;;23.80;59.30;;;;;;6265688;28;20033;-72
2021/09/11 13:39:00;;;;;;;1.00;0.90;;;23.80;59.30;;;;;;6247432;28;20047;-71
2021/09/11 13:42:01;;;;;;;0.82;0.80;;;23.80;59.40;;;;;;6270149;28;20037;-72
2021/09/11 13:45:02;;;;;;;1.00;0.90;;;23.80;59.30;;;;;;6270366;28;20027;-72
2021/09/11 13:48:03;;;;;;;1.17;0.75;;;23.80;59.30;;;;;;6252350;28;20498;-72
2021/09/11 13:51:04;;;;;;;0.68;0.68;;;23.80;59.30;;;;;;6239249;28;20065;-71
2021/09/11 13:54:04;;;;;;;0.70;0.65;;;23.80;59.30;;;;;;6245295;28;20037;-72
2021/09/11 13:57:05;;;;;;;0.80;0.70;;;23.80;59.30;;;;;;6219323;28;20125;-71
2021/09/11 14:00:07;;;;;;;0.82;0.73;;;23.80;59.30;;;;;;6209715;28;20075;-71
2021/09/11 14:03:07;;;;;;;1.00;0.93;;;23.80;59.30;;;;;;6252074;28;20025;-71
2021/09/11 14:06:09;;;;;;;1.00;0.90;;;23.80;59.40;;;;;;6234033;28;20029;-71
2021/09/11 14:09:09;;;;;;;0.70;0.63;;;23.80;59.40;;;;;;6246679;28;20105;-71
2021/09/11 14:12:10;;;;;;;0.70;0.70;;;23.80;59.30;;;;;;6246845;28;20033;-71
2021/09/11 14:15:11;;;;;;;0.70;0.70;;;23.80;59.30;;;;;;6228900;28;20029;-71
2021/09/11 14:18:12;;;;;;;0.98;0.88;;;23.80;59.40;;;;;;6246548;28;20025;-71
2021/09/11 14:21:12;;;;;;;0.88;0.82;;;23.80;59.30;;;;;;6228541;28;20502;-71
2021/09/11 14:24:13;;;;;;;0.70;0.70;;;23.80;59.30;;;;;;6246478;28;20021;-71
2021/09/11 14:27:15;;;;;;;0.80;0.80;;;23.80;59.30;;;;;;6247772;28;20021;-71
2021/09/11 14:30:19;;;;;;;1.23;0.80;;;23.80;59.40;;;;;;6246994;28;20033;-70
2021/09/11 14:33:19;;;;;;;0.93;0.77;;;23.80;59.40;;;;;;6226622;28;20491;-71
2021/09/11 14:36:20;;;;;;;0.63;0.60;;;23.80;59.30;;;;;;6229116;28;20380;-71
2021/09/11 14:39:20;;;;;;;0.70;0.70;;;23.80;59.30;;;;;;6258575;28;20091;-71
2021/09/11 14:42:21;;;;;;;0.80;0.80;;;23.80;59.30;;;;;;6253766;28;20024;-71
2021/09/11 14:45:22;;;;;;;0.82;0.73;;;23.80;59.30;;;;;;6271663;28;20021;-71
2021/09/11 14:48:22;;;;;;;0.93;0.80;;;23.80;59.30;;;;;;6253227;28;20025;-71
2021/09/11 14:51:23;;;;;;;0.60;0.60;;;23.80;59.40;;;;;;6269928;28;20032;-71
2021/09/11 14:54:23;;;;;;;0.47;0.40;;;23.80;59.30;;;;;;6252944;28;20527;-71
2021/09/11 14:57:24;;;;;;;0.70;0.70;;;23.80;59.30;;;;;;6252776;28;20341;-71
2021/09/11 15:00:26;;;;;;;0.70;0.70;;;23.80;59.30;;;;;;6270771;28;20029;-71
2021/09/11 15:03:26;;;;;;;0.50;0.50;;;23.80;59.30;;;;;;6252203;28;20021;-71
2021/09/11 15:06:27;;;;;;;0.90;0.70;;;23.80;59.30;;;;;;6252643;28;20237;-71
2021/09/11 15:09:27;;;;;;;1.00;0.90;;;23.80;59.40;;;;;;6266739;28;20041;-71
2021/09/11 15:12:29;;;;;;;0.80;0.68;;;23.80;59.30;;;;;;6253274;28;20029;-71
2021/09/11 15:15:30;;;;;;;1.00;0.77;;;23.80;59.30;;;;;;6252304;28;20032;-71
2021/09/11 15:18:31;;;;;;;1.45;0.70;;;23.80;59.40;;;;;;6252891;28;20085;-71
2021/09/11 15:21:31;;;;;;;0.50;0.50;;;23.80;59.40;;;;;;6252605;28;20051;-71
2021/09/11 15:24:32;;;;;;;0.50;0.50;;;23.80;59.30;;;;;;6252309;28;20017;-71
2021/09/11 15:27:39;;;;;;;0.60;0.60;;;23.80;59.30;;;;;;6252140;28;20013;-71
2021/09/11 15:30:40;;;;;;;0.77;0.60;;;23.80;59.40;;;;;;6269788;28;20569;-71
2021/09/11 15:33:40;;;;;;;0.70;0.70;;;23.80;59.40;;;;;;6269974;28;20272;-71
2021/09/11 15:36:41;;;;;;;0.60;0.60;;;23.80;59.30;;;;;;6251974;28;20108;-71
2021/09/11 15:39:42;;;;;;;0.55;0.55;;;23.80;59.40;;;;;;6270094;28;20486;-71
2021/09/11 15:42:42;;;;;;;0.60;0.60;;;23.80;59.40;;;;;;6251687;28;20106;-70
2021/09/11 15:45:43;;;;;;;0.50;0.50;;;23.80;59.40;;;;;;6251773;28;20406;-72
2021/09/11 15:48:44;;;;;;;0.80;0.80;;;23.80;59.40;;;;;;6238231;28;20471;-72
2021/09/11 15:51:45;;;;;;;0.60;0.60;;;23.80;59.40;;;;;;6243029;28;20028;-72
2021/09/11 15:54:45;;;;;;;0.60;0.60;;;23.80;59.40;;;;;;6216775;28;20117;-72
2021/09/11 15:57:46;;;;;;;0.98;0.70;;;23.80;59.40;;;;;;6221003;28;20026;-71
2021/09/11 16:00:46;;;;;;;1.60;0.70;;;23.80;59.40;;;;;;6225025;28;20017;-72
2021/09/11 16:03:47;;;;;;;0.50;0.50;;;23.80;59.40;;;;;;6241527;28;20075;-71
2021/09/11 16:06:48;;;;;;;0.50;0.50;;;23.80;59.40;;;;;;6224661;28;20104;-71
2021/09/11 16:09:48;;;;;;;0.70;0.60;;;23.80;59.40;;;;;;6242351;28;20087;-72
2021/09/11 16:12:49;;;;;;;0.50;0.50;;;23.80;59.40;;;;;;6242598;28;20356;-71
2021/09/11 16:15:50;;;;;;;1.00;0.90;;;23.80;59.30;;;;;;6246438;28;20530;-71
2021/09/11 16:18:51;;;;;;;1.13;0.75;;;23.80;59.40;;;;;;6258632;28;20562;-71
2021/09/11 16:21:51;;;;;;;0.60;0.50;;;23.80;59.40;;;;;;6241923;28;20042;-72
2021/09/11 16:24:52;;;;;;;0.55;0.55;;;23.80;59.40;;;;;;6241465;28;20537;-72
2021/09/11 16:27:52;;;;;;;0.63;0.63;;;23.80;59.40;;;;;;6224854;28;20026;-72
2021/09/11 16:30:53;;;;;;;0.60;0.60;;;23.80;59.40;;;;;;6223978;28;20239;-72
2021/09/11 16:33:54;;;;;;;0.47;0.40;;;23.80;59.40;;;;;;6242034;28;20501;-71
2021/09/11 16:36:55;;;;;;;0.50;0.50;;;23.80;59.40;;;;;;6242388;28;20140;-72
2021/09/11 16:39:55;;;;;;;0.80;0.70;;;23.80;59.40;;;;;;6257093;28;20067;-71
2021/09/11 16:42:56;;;;;;;0.50;0.50;;;23.80;59.40;;;;;;6266639;28;20095;-72
2021/09/11 16:45:57;;;;;;;0.50;0.50;;;23.80;59.40;;;;;;6248682;28;20027;-71
2021/09/11 16:48:57;;;;;;;0.47;0.47;;;23.80;59.40;;;;;;6248619;28;20025;-71
2021/09/11 16:51:58;;;;;;;0.93;0.70;;;23.80;59.40;;;;;;6266416;28;20033;-72
2021/09/11 16:54:59;;;;;;;1.00;0.70;;;23.80;59.40;;;;;;6266028;28;20035;-72
2021/09/11 16:58:00;;;;;;;0.50;0.50;;;23.80;59.40;;;;;;6248876;28;20283;-72
2021/09/11 17:01:01;;;;;;;0.73;0.60;;;23.80;59.40;;;;;;6240152;28;20469;-72
2021/09/11 17:04:03;;;;;;;0.50;0.50;;;23.80;59.40;;;;;;6243990;28;20474;-72
2021/09/11 17:07:03;;;;;;;0.50;0.50;;;23.80;59.40;;;;;;6233092;28;20017;-72
2021/09/11 17:10:05;;;;;;;0.40;0.40;;;23.80;59.40;;;;;;6250321;28;20056;-71
2021/09/11 17:13:06;;;;;;;0.50;0.50;;;23.80;59.40;;;;;;6249569;28;20025;-72
2021/09/11 17:16:07;;;;;;;0.60;0.60;;;23.80;59.40;;;;;;6270520;28;20583;-72
2021/09/11 17:19:10;;;;;;;0.50;0.50;;;23.70;59.30;;;;;;6254270;28;20029;-72
2021/09/11 17:22:13;;;;;;;0.60;0.50;;;23.80;59.40;;;;;;6272463;28;20032;-72
2021/09/11 17:25:13;;;;;;;0.52;0.52;;;23.80;59.40;;;;;;6254118;28;20027;-73
2021/09/11 17:28:15;;;;;;;0.60;0.60;;;23.80;59.40;;;;;;6273150;28;20025;-73
2021/09/11 17:31:15;;;;;;;0.50;0.50;;;23.80;59.40;;;;;;6254525;28;20032;-73
2021/09/11 17:34:16;;;;;;;0.60;0.60;;;23.80;59.40;;;;;;6254924;28;20029;-74
2021/09/11 17:37:17;;;;;;;0.60;0.60;;;23.80;59.40;;;;;;6272800;28;20482;-74
2021/09/11 17:40:17;;;;;;;0.98;0.70;;;23.80;59.40;;;;;;6271594;28;20048;-74
2021/09/11 17:43:18;;;;;;;1.60;0.57;;;23.80;59.40;;;;;;6272731;28;20059;-73
2021/09/11 17:46:18;;;;;;;1.02;0.68;;;23.80;59.40;;;;;;6254192;28;20028;-73
2021/09/11 17:49:19;;;;;;;1.30;0.73;;;23.80;59.40;;;;;;6272941;28;20387;-73
2021/09/11 17:52:20;;;;;;;0.77;0.70;;;23.80;59.50;;;;;;6272497;28;20070;-74
2021/09/11 17:55:21;;;;;;;1.42;0.70;;;23.80;59.50;;;;;;6272822;28;20021;-74
2021/09/11 17:58:21;;;;;;;1.48;0.73;;;23.80;59.50;;;;;;6272697;28;20043;-73
2021/09/11 18:01:23;;;;;;;0.73;0.60;;;23.80;59.50;;;;;;6272575;28;20482;-74
2021/09/11 18:04:23;;;;;;;0.80;0.80;;;23.80;59.50;;;;;;6253963;28;20052;-74
2021/09/11 18:07:24;;;;;;;0.88;0.75;;;23.70;59.40;;;;;;6272912;28;20539;-72
2021/09/11 18:10:25;;;;;;;1.20;0.70;;;23.80;59.50;;;;;;6253731;28;20499;-73
2021/09/11 18:13:28;;;;;;;1.38;0.95;;;23.80;59.50;;;;;;6254334;28;20531;-73
2021/09/11 18:16:29;;;;;;;1.08;0.80;;;23.80;59.50;;;;;;6253627;28;20025;-74
2021/09/11 18:19:30;;;;;;;0.95;0.77;;;23.80;59.50;;;;;;6271825;28;20120;-73
2021/09/11 18:22:30;;;;;;;0.93;0.82;;;23.80;59.50;;;;;;6253664;28;20087;-73
2021/09/11 18:25:31;;;;;;;1.30;0.80;;;23.80;59.50;;;;;;6270999;28;20024;-73
2021/09/11 18:28:31;;;;;;;1.02;0.90;;;23.80;59.50;;;;;;6271212;28;20078;-73
2021/09/11 18:31:32;;;;;;;1.23;1.00;;;23.80;59.50;;;;;;6271562;28;20031;-74
2021/09/11 18:34:32;;;;;;;1.10;0.95;;;23.80;59.50;;;;;;6271315;28;20029;-73
2021/09/11 18:37:34;;;;;;;1.20;0.90;;;23.80;59.50;;;;;;6271066;28;20036;-74
2021/09/11 18:40:34;;;;;;;1.13;0.90;;;23.80;59.50;;;;;;6271115;28;20044;-73
2021/09/11 18:43:35;;;;;;;1.95;0.80;;;23.70;59.40;;;;;;6271355;28;20025;-73
2021/09/11 18:46:37;;;;;;;0.80;0.80;;;23.80;59.50;;;;;;6271224;28;20335;-74
2021/09/11 18:49:38;;;;;;;1.52;1.00;;;23.80;59.50;;;;;;6271359;28;20025;-73
2021/09/11 18:52:38;;;;;;;1.63;0.80;;;23.80;59.50;;;;;;6271098;28;20029;-73
2021/09/11 18:55:39;;;;;;;1.00;0.90;;;23.80;59.50;;;;;;6271352;28;20116;-73
2021/09/11 18:58:39;;;;;;;1.02;0.82;;;23.80;59.50;;;;;;6252926;28;20047;-73
2021/09/11 19:01:40;;;;;;;1.00;0.90;;;23.70;59.40;;;;;;6270603;28;20021;-73
2021/09/11 19:04:41;;;;;;;0.82;0.82;;;23.70;59.40;;;;;;6253005;28;20061;-73
2021/09/11 19:07:41;;;;;;;0.80;0.80;;;23.80;59.50;;;;;;6270596;28;20025;-73
2021/09/11 19:10:42;;;;;;;0.73;0.73;;;23.80;59.50;;;;;;6252895;28;20025;-74
2021/09/11 19:13:42;;;;;;;1.10;0.85;;;23.80;59.50;;;;;;6237792;28;20060;-73
2021/09/11 19:16:43;;;;;;;1.17;0.80;;;23.80;59.50;;;;;;6245391;28;20032;-74
2021/09/11 19:19:44;;;;;;;1.00;0.77;;;23.80;59.50;;;;;;6246082;28;20156;-73
2021/09/11 19:22:44;;;;;;;0.80;0.80;;;23.80;59.50;;;;;;6245725;28;20020;-72
2021/09/11 19:25:47;;;;;;;1.05;0.88;;;23.70;59.40;;;;;;6245541;28;20021;-73
2021/09/11 19:28:49;;;;;;;1.63;0.90;;;23.80;59.50;;;;;;6245144;28;20060;-73
2021/09/11 19:31:49;;;;;;;1.27;0.85;;;23.80;59.50;;;;;;6245433;28;20167;-74
2021/09/11 19:34:50;;;;;;;0.90;0.68;;;23.80;59.50;;;;;;6265922;28;20063;-73
2021/09/11 19:37:50;;;;;;;0.88;0.80;;;23.80;59.50;;;;;;6269718;28;20025;-74
2021/09/11 19:40:51;;;;;;;0.98;0.90;;;23.80;59.50;;;;;;6251731;28;20041;-73
2021/09/11 19:43:52;;;;;;;0.80;0.80;;;23.80;59.50;;;;;;6270004;28;20503;-73
2021/09/11 19:46:52;;;;;;;1.10;0.93;;;23.80;59.50;;;;;;6269386;28;20028;-73
2021/09/11 19:49:53;;;;;;;1.10;1.00;;;23.80;59.50;;;;;;6269823;28;20032;-74
2021/09/11 19:52:54;;;;;;;1.02;0.90;;;23.80;59.50;;;;;;6251378;28;20021;-74
2021/09/11 19:55:54;;;;;;;0.80;0.80;;;23.80;59.50;;;;;;6269716;28;20051;-73
2021/09/11 19:58:55;;;;;;;0.75;0.75;;;23.80;59.50;;;;;;6243089;28;20037;-72
2021/09/11 20:01:55;;;;;;;1.33;0.98;;;23.80;59.50;;;;;;6243624;28;20120;-73
2021/09/11 20:04:56;;;;;;;1.00;0.80;;;23.80;59.50;;;;;;6251845;28;20049;-72
2021/09/11 20:07:57;;;;;;;0.90;0.80;;;23.70;59.50;;;;;;6244286;28;20230;-72
2021/09/11 20:10:57;;;;;;;1.48;1.00;;;23.80;59.50;;;;;;6268492;28;20508;-72